< < Back
Terminal Aerodrome Forecast


Current Version              Previous Versions:   1  2  3  4  5  6  7  8  9  

Terminal Aerodrome Forecast

038
FTUS44 KMOB 252349
TAFMOB
TAF
KMOB 252349Z 2600/2624 VRB04KT P6SM FEW015 BKN035
     FM260300 20007KT 6SM BR BKN010
     FM260600 VRB03KT 2SM BR OVC005
     FM261300 27005KT P6SM SCT250=

Latest METAR

926
SAUS80 KWBC 261100
MTRMOB
METAR KMOB 261056Z 00000KT 7SM FEW180 SCT250 18/18 A2976 RMK AO2 SLP075
T01830178


USA.gov is the U.S. government's official web portal to all federal, state and local government web resources and services.